Time;durP1;ratioP1;P1;durP2;ratioP2;P2;SDS_P1;SDS_P2;PMS_P1;PMS_P2;Temp;Humidity;BMP_temperature;BMP_pressure;BME280_temperature;BME280_humidity;BME280_pressure;Samples;Min_cycle;Max_cycle;Signal;HPM_P1;HPM_P2
2022/01/26 00:00:07;;;;;;;1.92;0.60;;;;;;;;;;4407019;32;20058;-53
2022/01/26 00:05:50;;;;;;;2.05;0.73;;;;;;;;;;4412439;32;20390;-53
2022/01/26 00:08:23;;;;;;;1.05;0.70;;;;;;;;;;4411419;32;20103;-53
2022/01/26 00:10:52;;;;;;;0.63;0.63;;;;;;;;;;4412539;32;20087;-52
2022/01/26 00:13:20;;;;;;;1.00;0.80;;;;;;;;;;4406420;32;20376;-55
2022/01/26 00:15:49;;;;;;;1.92;0.80;;;;;;;;;;4419759;32;20077;-55
2022/01/26 00:18:20;;;;;;;1.90;0.70;;;;;;;;;;4405822;32;20031;-53
2022/01/26 00:20:59;;;;;;;0.93;0.70;;;;;;;;;;4408114;32;20108;-53
2022/01/26 00:29:15;;;;;;;1.42;0.77;;;;;;;;;;4414503;32;20031;-54
2022/01/26 00:33:07;;;;;;;2.55;0.77;;;;;;;;;;4408985;32;20047;-53
2022/01/26 00:40:40;;;;;;;2.45;0.75;;;;;;;;;;4413106;32;20030;-53
2022/01/26 00:43:30;;;;;;;1.35;0.70;;;;;;;;;;4413852;32;20045;-54
2022/01/26 00:45:59;;;;;;;1.12;0.60;;;;;;;;;;4414853;32;20541;-53
2022/01/26 00:48:31;;;;;;;1.60;0.70;;;;;;;;;;4413067;32;20068;-55
2022/01/26 00:51:04;;;;;;;0.93;0.60;;;;;;;;;;4412169;32;20034;-56
2022/01/26 00:53:36;;;;;;;1.75;0.70;;;;;;;;;;4411711;32;20088;-52
2022/01/26 00:56:05;;;;;;;1.20;0.60;;;;;;;;;;4409997;32;20088;-56
2022/01/26 00:58:34;;;;;;;2.87;0.93;;;;;;;;;;4418246;32;20042;-55
2022/01/26 01:01:03;;;;;;;2.20;0.70;;;;;;;;;;4403399;32;20426;-54
2022/01/26 01:03:35;;;;;;;2.53;0.85;;;;;;;;;;4418171;32;20026;-52
2022/01/26 01:06:11;;;;;;;2.30;0.60;;;;;;;;;;4410627;32;20066;-52
2022/01/26 01:08:41;;;;;;;1.30;0.65;;;;;;;;;;4418824;32;20051;-53
2022/01/26 01:11:10;;;;;;;1.70;0.65;;;;;;;;;;4410122;32;20039;-53
2022/01/26 01:13:40;;;;;;;1.08;0.60;;;;;;;;;;4414252;32;20051;-55
2022/01/26 01:16:12;;;;;;;0.88;0.50;;;;;;;;;;4408205;32;20106;-52
2022/01/26 01:18:49;;;;;;;1.27;0.60;;;;;;;;;;4405933;32;20110;-53
2022/01/26 01:29:24;;;;;;;0.50;0.50;;;;;;;;;;4409605;32;20099;-53
2022/01/26 01:34:25;;;;;;;1.15;0.70;;;;;;;;;;4410536;32;20041;-52
2022/01/26 01:37:00;;;;;;;1.23;0.60;;;;;;;;;;4411483;32;20046;-54
2022/01/26 01:39:33;;;;;;;;;;;;;;;;;;4408505;32;20086;-54
2022/01/26 01:42:02;;;;;;;1.52;0.62;;;;;;;;;;4413859;32;19993;-53
2022/01/26 01:44:31;;;;;;;0.95;0.60;;;;;;;;;;4415635;32;20042;-55
2022/01/26 01:46:59;;;;;;;1.70;0.60;;;;;;;;;;4412916;32;20103;-55
2022/01/26 01:49:28;;;;;;;1.33;0.73;;;;;;;;;;4410860;32;20057;-54
2022/01/26 01:52:01;;;;;;;0.60;0.60;;;;;;;;;;4416224;32;20038;-53
2022/01/26 01:54:31;;;;;;;1.30;0.70;;;;;;;;;;4411530;32;20442;-53
2022/01/26 01:57:00;;;;;;;1.52;0.55;;;;;;;;;;4408756;32;20443;-52
2022/01/26 01:59:30;;;;;;;0.75;0.57;;;;;;;;;;4407055;32;20123;-52
2022/01/26 02:01:59;;;;;;;0.80;0.50;;;;;;;;;;4402675;32;20488;-55
2022/01/26 02:04:28;;;;;;;2.90;0.70;;;;;;;;;;4409402;32;20059;-52
2022/01/26 02:06:57;;;;;;;1.40;0.50;;;;;;;;;;4405902;32;20035;-53
2022/01/26 02:09:25;;;;;;;1.02;0.50;;;;;;;;;;4408586;32;20043;-54
2022/01/26 02:11:56;;;;;;;2.22;0.70;;;;;;;;;;4403819;32;20082;-58
2022/01/26 02:14:33;;;;;;;0.50;0.50;;;;;;;;;;4409658;32;20094;-52
2022/01/26 02:55:46;;;;;;;0.50;0.50;;;;;;;;;;4405900;32;20101;-54
2022/01/26 03:04:02;;;;;;;1.10;0.70;;;;;;;;;;4402408;32;20184;-55
2022/01/26 03:06:45;;;;;;;1.15;0.60;;;;;;;;;;4412600;32;20114;-52
2022/01/26 03:09:18;;;;;;;1.27;0.65;;;;;;;;;;4408530;32;20092;-51
2022/01/26 03:11:48;;;;;;;0.85;0.50;;;;;;;;;;4415348;32;20039;-55
2022/01/26 03:14:26;;;;;;;0.82;0.60;;;;;;;;;;4408187;32;20092;-55
2022/01/26 03:17:00;;;;;;;0.70;0.50;;;;;;;;;;4408975;32;20038;-52
2022/01/26 03:19:39;;;;;;;0.75;0.60;;;;;;;;;;4404430;32;20054;-53
2022/01/26 03:30:08;;;;;;;;;;;;;;;;;;4409389;32;20347;-55
2022/01/26 03:35:41;;;;;;;1.55;0.57;;;;;;;;;;4417062;32;20038;-53
2022/01/26 03:38:20;;;;;;;0.60;0.50;;;;;;;;;;4406264;32;20082;-53
2022/01/26 03:40:58;;;;;;;0.57;0.45;;;;;;;;;;4412167;32;20051;-54
2022/01/26 03:43:27;;;;;;;0.40;0.40;;;;;;;;;;4409713;32;20038;-53
2022/01/26 03:45:56;;;;;;;0.60;0.52;;;;;;;;;;4408407;32;20041;-52
2022/01/26 03:48:24;;;;;;;0.80;0.60;;;;;;;;;;4411368;32;20060;-53
2022/01/26 03:50:52;;;;;;;1.05;0.70;;;;;;;;;;4412345;32;20046;-52
2022/01/26 03:53:21;;;;;;;0.40;0.40;;;;;;;;;;4406960;32;20050;-53
2022/01/26 03:55:49;;;;;;;0.77;0.60;;;;;;;;;;4407338;32;20090;-52
2022/01/26 03:58:18;;;;;;;0.40;0.40;;;;;;;;;;4415136;32;20085;-55
2022/01/26 04:00:47;;;;;;;0.98;0.52;;;;;;;;;;4403922;32;20464;-52
2022/01/26 04:03:15;;;;;;;0.55;0.52;;;;;;;;;;4404699;32;20086;-55
2022/01/26 04:05:44;;;;;;;0.65;0.57;;;;;;;;;;4411688;32;20050;-55
2022/01/26 04:08:21;;;;;;;0.70;0.60;;;;;;;;;;4404867;32;20116;-52
2022/01/26 04:13:30;;;;;;;1.10;0.55;;;;;;;;;;4410397;32;20064;-54
2022/01/26 04:15:59;;;;;;;0.95;0.43;;;;;;;;;;4415981;32;20030;-54
2022/01/26 04:18:33;;;;;;;1.20;0.37;;;;;;;;;;4410766;32;20423;-52
2022/01/26 04:21:10;;;;;;;0.57;0.57;;;;;;;;;;4409640;32;20047;-51
2022/01/26 04:26:07;;;;;;;0.60;0.40;;;;;;;;;;4411208;32;20034;-52
2022/01/26 04:28:44;;;;;;;1.67;0.60;;;;;;;;;;4416633;32;20487;-52
2022/01/26 04:31:13;;;;;;;0.80;0.50;;;;;;;;;;4403368;32;20370;-53
2022/01/26 04:33:41;;;;;;;1.00;0.52;;;;;;;;;;4413789;32;20038;-54
2022/01/26 04:36:13;;;;;;;0.52;0.52;;;;;;;;;;4415001;32;20038;-54
2022/01/26 04:38:48;;;;;;;1.55;0.60;;;;;;;;;;4417753;32;20046;-53
2022/01/26 04:44:07;;;;;;;1.17;0.70;;;;;;;;;;4419164;32;20049;-54
2022/01/26 04:46:35;;;;;;;0.82;0.45;;;;;;;;;;4411209;32;20089;-55
2022/01/26 04:49:04;;;;;;;0.43;0.43;;;;;;;;;;4419923;32;20089;-52
2022/01/26 04:51:32;;;;;;;0.50;0.50;;;;;;;;;;4404423;32;20097;-54
2022/01/26 04:54:01;;;;;;;1.65;0.60;;;;;;;;;;4412239;32;20090;-52
2022/01/26 04:56:29;;;;;;;0.52;0.50;;;;;;;;;;4411741;32;20322;-53
2022/01/26 04:58:57;;;;;;;0.45;0.40;;;;;;;;;;4418735;32;20042;-50
2022/01/26 05:01:26;;;;;;;0.85;0.40;;;;;;;;;;4414548;32;20034;-53
2022/01/26 05:03:54;;;;;;;0.50;0.50;;;;;;;;;;4408618;32;20461;-52
2022/01/26 05:06:23;;;;;;;0.32;0.30;;;;;;;;;;4416761;32;20424;-54
2022/01/26 05:08:51;;;;;;;1.08;0.60;;;;;;;;;;4408904;32;20091;-53
2022/01/26 05:11:32;;;;;;;0.50;0.50;;;;;;;;;;4410162;32;20300;-52
2022/01/26 05:14:00;;;;;;;0.65;0.50;;;;;;;;;;4408929;32;20070;-51
2022/01/26 05:16:29;;;;;;;0.85;0.50;;;;;;;;;;4413328;32;20049;-53
2022/01/26 05:18:58;;;;;;;0.45;0.40;;;;;;;;;;4405796;32;20451;-55
2022/01/26 05:21:29;;;;;;;1.00;0.50;;;;;;;;;;4403094;32;20120;-53
2022/01/26 05:23:58;;;;;;;0.50;0.50;;;;;;;;;;4404608;32;20101;-55
2022/01/26 05:26:26;;;;;;;0.85;0.50;;;;;;;;;;4405985;32;20046;-52
2022/01/26 05:28:54;;;;;;;1.15;0.60;;;;;;;;;;4405291;32;20060;-52
2022/01/26 05:31:23;;;;;;;0.57;0.50;;;;;;;;;;4412724;32;20058;-54
2022/01/26 05:33:53;;;;;;;0.65;0.57;;;;;;;;;;4410305;32;20034;-55
2022/01/26 05:36:22;;;;;;;0.52;0.50;;;;;;;;;;4411091;32;20077;-53
2022/01/26 05:38:50;;;;;;;1.00;0.60;;;;;;;;;;4405647;32;20508;-54
2022/01/26 05:41:19;;;;;;;0.60;0.50;;;;;;;;;;4411850;32;20122;-52
2022/01/26 05:43:47;;;;;;;0.50;0.50;;;;;;;;;;4404570;32;20171;-55
2022/01/26 05:46:24;;;;;;;0.62;0.50;;;;;;;;;;4411481;32;20056;-52
2022/01/26 05:48:55;;;;;;;0.88;0.50;;;;;;;;;;4413278;32;20103;-52
2022/01/26 05:51:24;;;;;;;0.40;0.40;;;;;;;;;;4403861;32;20151;-51
2022/01/26 05:53:52;;;;;;;0.50;0.50;;;;;;;;;;4410973;32;20034;-55
2022/01/26 05:56:20;;;;;;;0.98;0.60;;;;;;;;;;4408023;32;20064;-55
2022/01/26 05:58:49;;;;;;;0.50;0.50;;;;;;;;;;4408097;32;20053;-54
2022/01/26 06:01:19;;;;;;;0.60;0.50;;;;;;;;;;4412832;32;20035;-56
2022/01/26 06:03:48;;;;;;;0.40;0.40;;;;;;;;;;4410414;32;20057;-53
2022/01/26 06:06:17;;;;;;;0.80;0.37;;;;;;;;;;4416221;32;20030;-53
2022/01/26 06:08:45;;;;;;;0.50;0.40;;;;;;;;;;4402196;32;20030;-53
2022/01/26 06:11:14;;;;;;;0.45;0.40;;;;;;;;;;4413595;32;20026;-54
2022/01/26 06:13:42;;;;;;;0.40;0.40;;;;;;;;;;4414232;32;20057;-55
2022/01/26 06:16:10;;;;;;;0.47;0.47;;;;;;;;;;4413227;32;20047;-54
2022/01/26 06:18:39;;;;;;;0.50;0.50;;;;;;;;;;4401169;32;20457;-55
2022/01/26 06:21:08;;;;;;;0.82;0.43;;;;;;;;;;4406653;32;20411;-55
2022/01/26 06:23:36;;;;;;;0.98;0.40;;;;;;;;;;4408929;32;20284;-53
2022/01/26 06:26:06;;;;;;;0.47;0.47;;;;;;;;;;4413033;32;20039;-55
2022/01/26 06:28:34;;;;;;;0.55;0.55;;;;;;;;;;4416220;32;20041;-54
2022/01/26 06:31:04;;;;;;;1.30;0.40;;;;;;;;;;4408287;32;20105;-55
2022/01/26 06:33:34;;;;;;;0.65;0.40;;;;;;;;;;4408760;32;20357;-53
2022/01/26 06:36:03;;;;;;;0.47;0.40;;;;;;;;;;4405623;32;20023;-54
2022/01/26 06:38:31;;;;;;;0.43;0.40;;;;;;;;;;4406648;32;20077;-54
2022/01/26 06:41:01;;;;;;;0.50;0.50;;;;;;;;;;4406334;32;20056;-52
2022/01/26 06:43:31;;;;;;;0.85;0.50;;;;;;;;;;4406343;32;20051;-53
2022/01/26 06:46:06;;;;;;;0.30;0.30;;;;;;;;;;4416306;32;20045;-53
2022/01/26 06:48:44;;;;;;;0.80;0.40;;;;;;;;;;4406772;32;20110;-55
2022/01/26 06:51:13;;;;;;;0.55;0.50;;;;;;;;;;4417681;32;20389;-54
2022/01/26 06:53:41;;;;;;;0.40;0.40;;;;;;;;;;4415424;32;20050;-55
2022/01/26 06:56:09;;;;;;;0.45;0.45;;;;;;;;;;4408739;32;20109;-54
2022/01/26 06:58:38;;;;;;;0.30;0.30;;;;;;;;;;4406469;32;20022;-55
2022/01/26 07:01:06;;;;;;;0.43;0.43;;;;;;;;;;4412109;32;20414;-52
2022/01/26 07:03:35;;;;;;;0.40;0.40;;;;;;;;;;4412757;32;20030;-53
2022/01/26 07:06:03;;;;;;;0.40;0.40;;;;;;;;;;4411388;32;20119;-53
2022/01/26 07:08:32;;;;;;;0.65;0.40;;;;;;;;;;4418113;32;20411;-53
2022/01/26 07:11:00;;;;;;;0.30;0.30;;;;;;;;;;4403749;32;20039;-55
2022/01/26 07:13:29;;;;;;;0.37;0.30;;;;;;;;;;4416651;32;20110;-51
2022/01/26 07:21:31;;;;;;;0.40;0.40;;;;;;;;;;4416195;32;20096;-52
2022/01/26 07:24:01;;;;;;;1.65;0.30;;;;;;;;;;4415474;32;20096;-55
2022/01/26 07:26:30;;;;;;;1.33;0.40;;;;;;;;;;4420432;32;20039;-52
2022/01/26 07:28:59;;;;;;;0.68;0.40;;;;;;;;;;4414931;32;20031;-54
2022/01/26 07:31:29;;;;;;;0.57;0.50;;;;;;;;;;4408261;32;20381;-54
2022/01/26 07:33:57;;;;;;;0.47;0.32;;;;;;;;;;4407928;32;20046;-54
2022/01/26 07:36:26;;;;;;;0.50;0.50;;;;;;;;;;4416027;32;20065;-55
2022/01/26 07:39:04;;;;;;;1.42;0.40;;;;;;;;;;4410204;32;20091;-54
2022/01/26 07:41:32;;;;;;;0.30;0.30;;;;;;;;;;4409637;32;20140;-55
2022/01/26 07:44:01;;;;;;;0.40;0.40;;;;;;;;;;4411492;32;20335;-56
2022/01/26 07:46:30;;;;;;;0.35;0.30;;;;;;;;;;4406174;32;20055;-55
2022/01/26 07:48:58;;;;;;;2.50;0.30;;;;;;;;;;4410547;32;20094;-53
2022/01/26 07:51:27;;;;;;;0.60;0.43;;;;;;;;;;4417725;32;20039;-55
2022/01/26 07:53:56;;;;;;;0.73;0.45;;;;;;;;;;4410461;32;20058;-51
2022/01/26 07:56:24;;;;;;;0.30;0.30;;;;;;;;;;4414275;32;20039;-55
2022/01/26 07:58:53;;;;;;;1.10;0.50;;;;;;;;;;4406542;32;20096;-52
2022/01/26 08:01:23;;;;;;;0.68;0.40;;;;;;;;;;4405076;32;20042;-53
2022/01/26 08:03:52;;;;;;;0.40;0.40;;;;;;;;;;4411702;32;20089;-52
2022/01/26 08:06:21;;;;;;;0.50;0.30;;;;;;;;;;4408819;32;20103;-53
2022/01/26 08:08:49;;;;;;;0.40;0.40;;;;;;;;;;4411829;32;20045;-52
2022/01/26 08:11:19;;;;;;;0.47;0.30;;;;;;;;;;4405277;32;20054;-55
2022/01/26 08:13:48;;;;;;;0.43;0.40;;;;;;;;;;4406791;32;20042;-52
2022/01/26 08:16:16;;;;;;;0.30;0.30;;;;;;;;;;4407091;32;20049;-51
2022/01/26 08:18:45;;;;;;;1.52;0.40;;;;;;;;;;4416400;32;20026;-50
2022/01/26 08:21:15;;;;;;;0.80;0.40;;;;;;;;;;4415817;32;20042;-52
2022/01/26 08:23:44;;;;;;;0.47;0.32;;;;;;;;;;4410253;32;20086;-52
2022/01/26 08:26:13;;;;;;;1.52;0.40;;;;;;;;;;4404266;32;20079;-54
2022/01/26 08:28:46;;;;;;;0.20;0.20;;;;;;;;;;4408839;32;20077;-50
2022/01/26 08:31:14;;;;;;;0.30;0.30;;;;;;;;;;4408672;32;20042;-49
2022/01/26 08:33:42;;;;;;;0.32;0.20;;;;;;;;;;4403402;32;20091;-51
2022/01/26 08:36:11;;;;;;;1.15;0.30;;;;;;;;;;4419105;32;20361;-51
2022/01/26 08:38:40;;;;;;;0.82;0.30;;;;;;;;;;4410326;32;20087;-52
2022/01/26 08:41:10;;;;;;;0.32;0.30;;;;;;;;;;4413969;32;20038;-50
2022/01/26 08:43:38;;;;;;;0.40;0.40;;;;;;;;;;4409789;32;20065;-55
2022/01/26 08:46:06;;;;;;;0.45;0.30;;;;;;;;;;4408545;32;20106;-53
2022/01/26 08:48:35;;;;;;;0.30;0.30;;;;;;;;;;4409884;32;20030;-54
2022/01/26 08:51:03;;;;;;;0.32;0.25;;;;;;;;;;4415418;32;20048;-52
2022/01/26 08:53:32;;;;;;;0.50;0.35;;;;;;;;;;4415671;32;20077;-54
2022/01/26 08:56:00;;;;;;;0.65;0.40;;;;;;;;;;4419614;32;20098;-54
2022/01/26 08:58:28;;;;;;;0.30;0.30;;;;;;;;;;4416125;32;20038;-52
2022/01/26 09:00:57;;;;;;;0.30;0.30;;;;;;;;;;4408670;32;20078;-57
2022/01/26 09:03:26;;;;;;;0.50;0.37;;;;;;;;;;4413500;32;20392;-54
2022/01/26 09:05:54;;;;;;;0.52;0.30;;;;;;;;;;4412770;32;20023;-54
2022/01/26 09:08:25;;;;;;;0.55;0.40;;;;;;;;;;4414117;32;20464;-55
2022/01/26 09:10:58;;;;;;;0.35;0.35;;;;;;;;;;4411521;32;20041;-56
2022/01/26 09:13:30;;;;;;;0.20;0.20;;;;;;;;;;4403342;32;20107;-56
2022/01/26 09:15:58;;;;;;;0.28;0.28;;;;;;;;;;4411076;32;20038;-55
2022/01/26 09:18:37;;;;;;;0.30;0.30;;;;;;;;;;4408585;32;20042;-52
2022/01/26 09:21:06;;;;;;;0.73;0.30;;;;;;;;;;4404337;32;20046;-56
2022/01/26 09:23:34;;;;;;;0.32;0.30;;;;;;;;;;4407889;32;20050;-56
2022/01/26 09:26:03;;;;;;;0.35;0.30;;;;;;;;;;4402882;32;20467;-52
2022/01/26 09:28:32;;;;;;;0.82;0.30;;;;;;;;;;4410269;32;20045;-55
2022/01/26 09:31:00;;;;;;;0.47;0.30;;;;;;;;;;4407403;32;20042;-55
2022/01/26 09:33:29;;;;;;;0.28;0.20;;;;;;;;;;4404869;32;20088;-55
2022/01/26 09:35:57;;;;;;;0.62;0.30;;;;;;;;;;4414079;32;20061;-54
2022/01/26 09:38:26;;;;;;;0.73;0.40;;;;;;;;;;4413447;32;20033;-54
2022/01/26 09:40:54;;;;;;;0.70;0.25;;;;;;;;;;4408841;32;20046;-52
2022/01/26 09:43:22;;;;;;;0.40;0.40;;;;;;;;;;4413658;32;20053;-56
2022/01/26 09:45:51;;;;;;;1.27;0.50;;;;;;;;;;4402610;32;20486;-55
2022/01/26 09:48:19;;;;;;;2.55;0.30;;;;;;;;;;4415572;32;20034;-52
2022/01/26 09:50:54;;;;;;;1.58;0.47;;;;;;;;;;4418552;32;20097;-54
2022/01/26 09:53:33;;;;;;;0.62;0.35;;;;;;;;;;4408320;32;20036;-50
2022/01/26 09:56:01;;;;;;;1.42;0.43;;;;;;;;;;4402078;32;20047;-50
2022/01/26 09:58:31;;;;;;;4.25;0.50;;;;;;;;;;4406588;32;20061;-49
2022/01/26 10:01:03;;;;;;;0.40;0.30;;;;;;;;;;4409496;32;20429;-52
2022/01/26 10:03:34;;;;;;;2.65;0.40;;;;;;;;;;4410458;32;20031;-50
2022/01/26 10:06:04;;;;;;;0.93;0.32;;;;;;;;;;4409270;32;20077;-52
2022/01/26 10:17:25;;;;;;;1.70;0.40;;;;;;;;;;4413500;32;20094;-52
2022/01/26 10:19:58;;;;;;;0.95;0.30;;;;;;;;;;4408534;32;20493;-52
2022/01/26 10:22:27;;;;;;;0.30;0.30;;;;;;;;;;4411271;32;20066;-54
2022/01/26 10:25:04;;;;;;;1.23;0.40;;;;;;;;;;4407436;32;20769;-52
2022/01/26 10:27:52;;;;;;;0.20;0.20;;;;;;;;;;4401851;32;20121;-53
2022/01/26 10:30:21;;;;;;;3.45;0.50;;;;;;;;;;4406574;32;20043;-52
2022/01/26 10:32:50;;;;;;;1.10;0.40;;;;;;;;;;4407775;32;20039;-53
2022/01/26 10:35:18;;;;;;;0.73;0.30;;;;;;;;;;4412954;32;20041;-55
2022/01/26 10:37:51;;;;;;;0.55;0.30;;;;;;;;;;4403253;32;20120;-52
2022/01/26 10:40:23;;;;;;;0.40;0.40;;;;;;;;;;4408171;32;20046;-54
2022/01/26 10:43:13;;;;;;;0.57;0.30;;;;;;;;;;4404778;32;20343;-52
2022/01/26 10:45:51;;;;;;;0.62;0.30;;;;;;;;;;4403323;32;20055;-55
2022/01/26 10:48:38;;;;;;;1.80;0.40;;;;;;;;;;4408467;32;20132;-52
2022/01/26 10:53:51;;;;;;;0.47;0.30;;;;;;;;;;4406683;32;20380;-53
2022/01/26 10:56:19;;;;;;;1.65;0.50;;;;;;;;;;4414419;32;20049;-52
2022/01/26 10:58:48;;;;;;;1.50;0.32;;;;;;;;;;4400286;32;20101;-55
2022/01/26 11:01:16;;;;;;;0.77;0.35;;;;;;;;;;4408330;32;20464;-53
2022/01/26 11:03:45;;;;;;;0.90;0.40;;;;;;;;;;4410563;32;20084;-54
2022/01/26 11:06:18;;;;;;;0.50;0.32;;;;;;;;;;4411920;32;20459;-53
2022/01/26 11:08:47;;;;;;;1.20;0.47;;;;;;;;;;4407865;32;20054;-52
2022/01/26 11:11:19;;;;;;;0.68;0.35;;;;;;;;;;4408194;32;20026;-54
2022/01/26 11:13:47;;;;;;;0.90;0.30;;;;;;;;;;4410665;32;20426;-54
2022/01/26 11:16:20;;;;;;;1.02;0.30;;;;;;;;;;4409190;32;20124;-52
2022/01/26 11:18:53;;;;;;;0.50;0.30;;;;;;;;;;4409310;32;20088;-56
2022/01/26 11:21:29;;;;;;;1.27;0.40;;;;;;;;;;4401192;32;20045;-55
2022/01/26 11:24:06;;;;;;;2.10;0.35;;;;;;;;;;4404685;32;20366;-53
2022/01/26 11:26:36;;;;;;;0.28;0.20;;;;;;;;;;4405164;32;20104;-55
2022/01/26 11:29:15;;;;;;;0.62;0.30;;;;;;;;;;4404842;32;20382;-55
2022/01/26 11:31:46;;;;;;;0.40;0.40;;;;;;;;;;4391377;32;20164;-54
2022/01/26 11:34:18;;;;;;;0.47;0.43;;;;;;;;;;4417143;32;20042;-56
2022/01/26 11:36:49;;;;;;;0.45;0.30;;;;;;;;;;4400199;32;20078;-52
2022/01/26 11:42:33;;;;;;;0.82;0.40;;;;;;;;;;4396898;32;20019;-52
2022/01/26 11:45:09;;;;;;;0.45;0.45;;;;;;;;;;4408270;32;20039;-52
2022/01/26 11:47:39;;;;;;;2.05;0.40;;;;;;;;;;4409972;32;20050;-56
2022/01/26 11:50:10;;;;;;;1.02;0.30;;;;;;;;;;4410163;32;20042;-54
2022/01/26 11:52:39;;;;;;;0.32;0.30;;;;;;;;;;4400163;32;20076;-52
2022/01/26 11:55:32;;;;;;;0.82;0.40;;;;;;;;;;4407230;32;20074;-52
2022/01/26 11:58:15;;;;;;;0.50;0.43;;;;;;;;;;4409008;32;20125;-53
2022/01/26 12:01:09;;;;;;;0.30;0.30;;;;;;;;;;4408971;32;20153;-52
2022/01/26 12:03:54;;;;;;;2.22;0.30;;;;;;;;;;4411008;32;20145;-52
2022/01/26 12:06:46;;;;;;;0.37;0.25;;;;;;;;;;4409010;32;20050;-52
2022/01/26 12:09:15;;;;;;;0.75;0.40;;;;;;;;;;4409633;32;20027;-50
2022/01/26 12:11:47;;;;;;;0.47;0.25;;;;;;;;;;4411212;32;20059;-53
2022/01/26 12:14:19;;;;;;;1.00;0.50;;;;;;;;;;4405926;32;20058;-55
2022/01/26 12:16:51;;;;;;;0.80;0.30;;;;;;;;;;4412992;32;20060;-54
2022/01/26 12:19:31;;;;;;;1.75;0.32;;;;;;;;;;4410852;32;20042;-54
2022/01/26 12:36:59;;;;;;;1.12;0.40;;;;;;;;;;4368643;32;20359;-51
2022/01/26 12:43:05;;;;;;;0.30;0.30;;;;;;;;;;4406928;32;20095;-53
2022/01/26 12:45:05;;;;;;;0.93;0.50;;;;;;;;;;4410300;32;20074;-52
2022/01/26 12:47:34;;;;;;;0.93;0.40;;;;;;;;;;4408194;32;20388;-52
2022/01/26 12:50:02;;;;;;;0.30;0.30;;;;;;;;;;4417958;32;20043;-50
2022/01/26 12:52:30;;;;;;;0.32;0.30;;;;;;;;;;4406123;32;20092;-54
2022/01/26 12:54:59;;;;;;;1.58;0.30;;;;;;;;;;4410697;32;20058;-53
2022/01/26 12:57:27;;;;;;;0.65;0.50;;;;;;;;;;4406616;32;20060;-50
2022/01/26 13:00:02;;;;;;;0.43;0.40;;;;;;;;;;4412501;32;20039;-51
2022/01/26 13:02:31;;;;;;;1.80;0.45;;;;;;;;;;4406469;32;20098;-50
2022/01/26 13:05:04;;;;;;;0.43;0.25;;;;;;;;;;4416979;32;20092;-52
2022/01/26 13:07:33;;;;;;;1.58;0.60;;;;;;;;;;4411650;32;20027;-52
2022/01/26 13:10:01;;;;;;;2.70;0.50;;;;;;;;;;4409002;32;20042;-51
2022/01/26 13:12:30;;;;;;;1.83;0.50;;;;;;;;;;4410310;32;20054;-51
2022/01/26 13:15:26;;;;;;;1.30;0.60;;;;;;;;;;4414662;32;20038;-52
2022/01/26 13:18:02;;;;;;;2.65;0.40;;;;;;;;;;4406843;32;20043;-53
2022/01/26 13:20:53;;;;;;;1.15;0.45;;;;;;;;;;4412643;32;20034;-51
2022/01/26 13:28:40;;;;;;;0.98;0.47;;;;;;;;;;4413856;32;20151;-51
2022/01/26 13:34:31;;;;;;;0.70;0.57;;;;;;;;;;4406884;32;20124;-49
2022/01/26 13:38:05;;;;;;;3.20;0.60;;;;;;;;;;4403180;32;20096;-51
2022/01/26 13:55:17;;;;;;;2.97;0.50;;;;;;;;;;4415561;32;20041;-52
2022/01/26 14:00:40;;;;;;;1.25;0.88;;;;;;;;;;4412051;32;20066;-52
2022/01/26 14:03:12;;;;;;;0.95;0.50;;;;;;;;;;4409383;32;20057;-51
2022/01/26 14:05:40;;;;;;;1.67;0.47;;;;;;;;;;4416211;32;20069;-54
2022/01/26 14:08:09;;;;;;;2.42;0.60;;;;;;;;;;4401814;32;20076;-50
2022/01/26 14:10:37;;;;;;;1.65;0.60;;;;;;;;;;4413517;32;20442;-50
2022/01/26 14:13:06;;;;;;;2.15;0.55;;;;;;;;;;4401200;32;20095;-51
2022/01/26 14:15:46;;;;;;;2.40;0.60;;;;;;;;;;4412199;32;20219;-54
2022/01/26 14:20:52;;;;;;;2.10;0.50;;;;;;;;;;4409502;32;20050;-51
2022/01/26 14:26:11;;;;;;;1.58;0.50;;;;;;;;;;4411414;32;20050;-54
2022/01/26 14:28:40;;;;;;;2.55;0.50;;;;;;;;;;4409178;32;20038;-51
2022/01/26 14:34:07;;;;;;;1.70;0.50;;;;;;;;;;4409205;32;20091;-50
2022/01/26 14:40:18;;;;;;;0.62;0.45;;;;;;;;;;4407964;32;20385;-50
2022/01/26 14:50:58;;;;;;;0.45;0.45;;;;;;;;;;4412550;32;20439;-51
2022/01/26 15:00:00;;;;;;;0.95;0.50;;;;;;;;;;4412243;32;20062;-52
2022/01/26 15:33:32;;;;;;;1.25;0.50;;;;;;;;;;4396384;32;20092;-53
2022/01/26 15:42:20;;;;;;;1.58;0.50;;;;;;;;;;4419582;32;20064;-51
2022/01/26 15:45:01;;;;;;;1.15;0.45;;;;;;;;;;4417126;32;20066;-50
2022/01/26 18:16:51;;;;;;;2.58;0.70;;;;;;;;;;4413788;32;20495;-52
2022/01/26 18:46:54;;;;;;;1.85;0.65;;;;;;;;;;4405799;32;20108;-54
2022/01/26 18:49:25;;;;;;;1.25;0.70;;;;;;;;;;4410691;32;20156;-53
2022/01/26 18:51:58;;;;;;;0.95;0.50;;;;;;;;;;4407453;32;20054;-55
2022/01/26 18:54:27;;;;;;;1.40;0.90;;;;;;;;;;4404132;32;20089;-56
2022/01/26 18:56:58;;;;;;;2.33;0.50;;;;;;;;;;4401293;32;20093;-53
2022/01/26 18:59:27;;;;;;;0.57;0.50;;;;;;;;;;4398846;32;20094;-55
2022/01/26 19:01:56;;;;;;;1.87;0.73;;;;;;;;;;4407785;32;20076;-55
2022/01/26 19:04:47;;;;;;;1.87;0.60;;;;;;;;;;4416730;32;20038;-52
2022/01/26 19:07:16;;;;;;;1.83;0.65;;;;;;;;;;4413628;32;20062;-55
2022/01/26 19:09:48;;;;;;;2.10;0.88;;;;;;;;;;4416839;32;20377;-53
2022/01/26 19:12:18;;;;;;;0.68;0.60;;;;;;;;;;4415829;32;20122;-53
2022/01/26 19:14:56;;;;;;;1.52;0.50;;;;;;;;;;4412614;32;20100;-53
2022/01/26 19:17:33;;;;;;;1.52;0.60;;;;;;;;;;4415253;32;20047;-52
2022/01/26 19:20:22;;;;;;;0.90;0.52;;;;;;;;;;4409221;32;20047;-54
2022/01/26 19:23:04;;;;;;;5.05;0.70;;;;;;;;;;4411953;32;20055;-52
2022/01/26 19:25:38;;;;;;;5.40;0.68;;;;;;;;;;4410056;32;20071;-52
2022/01/26 19:28:19;;;;;;;2.95;0.60;;;;;;;;;;4411371;32;20448;-52
2022/01/26 19:52:15;;;;;;;4.28;0.93;;;;;;;;;;4413579;32;20888;-51
2022/01/26 19:54:48;;;;;;;0.65;0.50;;;;;;;;;;4409755;32;20047;-52
2022/01/26 19:57:18;;;;;;;2.42;0.60;;;;;;;;;;4413024;32;20128;-52
2022/01/26 19:59:47;;;;;;;1.70;0.70;;;;;;;;;;4418758;32;20421;-51
2022/01/26 20:02:15;;;;;;;0.70;0.43;;;;;;;;;;4407672;32;20042;-54
2022/01/26 20:04:46;;;;;;;1.40;0.75;;;;;;;;;;4418757;32;20371;-51
2022/01/26 20:07:19;;;;;;;1.87;0.50;;;;;;;;;;4412810;32;20438;-54
2022/01/26 20:09:53;;;;;;;0.60;0.43;;;;;;;;;;4416909;32;20055;-52
2022/01/26 20:13:08;;;;;;;0.67;0.40;;;;;;;;;;4409403;32;20506;-55
2022/01/26 20:15:14;;;;;;;1.02;0.50;;;;;;;;;;4408673;32;20453;-54
2022/01/26 20:17:43;;;;;;;3.55;0.70;;;;;;;;;;4410427;32;20377;-54
2022/01/26 20:20:12;;;;;;;1.55;0.62;;;;;;;;;;4408387;32;20061;-52
2022/01/26 20:22:41;;;;;;;2.28;0.60;;;;;;;;;;4412473;32;20026;-52
2022/01/26 20:25:12;;;;;;;1.20;0.60;;;;;;;;;;4420629;32;20418;-51
2022/01/26 20:27:41;;;;;;;1.48;0.50;;;;;;;;;;4413216;32;20117;-51
2022/01/26 20:30:22;;;;;;;1.87;0.50;;;;;;;;;;4411957;32;20416;-53
2022/01/26 20:32:51;;;;;;;2.00;0.65;;;;;;;;;;4409393;32;20402;-52
2022/01/26 20:35:20;;;;;;;0.77;0.55;;;;;;;;;;4411050;32;20049;-51
2022/01/26 20:37:49;;;;;;;1.23;0.65;;;;;;;;;;4412486;32;20031;-52
2022/01/26 20:40:18;;;;;;;1.23;0.70;;;;;;;;;;4411499;32;20049;-51
2022/01/26 20:42:46;;;;;;;1.02;0.60;;;;;;;;;;4404010;32;20412;-54
2022/01/26 20:45:20;;;;;;;1.67;0.60;;;;;;;;;;4416838;32;20170;-51
2022/01/26 20:47:49;;;;;;;;;;;;;;;;;;4409375;32;20407;-54
2022/01/26 20:50:17;;;;;;;1.00;0.60;;;;;;;;;;4413206;32;19981;-52
2022/01/26 20:52:46;;;;;;;1.73;0.60;;;;;;;;;;4408027;32;20419;-51
2022/01/26 20:55:15;;;;;;;7.25;0.80;;;;;;;;;;4418097;32;20110;-54
2022/01/26 20:57:43;;;;;;;0.82;0.60;;;;;;;;;;4409908;32;20042;-54
2022/01/26 21:00:12;;;;;;;0.95;0.57;;;;;;;;;;4407430;32;20653;-55
2022/01/26 21:02:49;;;;;;;;;;;;;;;;;;4406972;32;20047;-52
2022/01/26 21:05:19;;;;;;;0.95;0.50;;;;;;;;;;4409996;32;20029;-51
2022/01/26 21:07:49;;;;;;;1.42;0.60;;;;;;;;;;4409544;32;20093;-55
2022/01/26 21:10:18;;;;;;;1.65;0.70;;;;;;;;;;4412131;32;20432;-51
2022/01/26 21:12:47;;;;;;;2.78;0.62;;;;;;;;;;4410857;32;20092;-55
2022/01/26 21:15:17;;;;;;;1.48;0.75;;;;;;;;;;4416709;32;20109;-53
2022/01/26 21:17:47;;;;;;;0.70;0.70;;;;;;;;;;4409314;32;20034;-55
2022/01/26 21:20:17;;;;;;;1.00;0.50;;;;;;;;;;4415027;32;20369;-53
2022/01/26 21:22:46;;;;;;;0.50;0.50;;;;;;;;;;4410992;32;20102;-52
2022/01/26 21:25:15;;;;;;;1.70;0.60;;;;;;;;;;4407487;32;20042;-55
2022/01/26 21:27:44;;;;;;;1.98;0.70;;;;;;;;;;4409246;32;20060;-52
2022/01/26 21:30:13;;;;;;;0.95;0.50;;;;;;;;;;4402197;32;20421;-52
2022/01/26 21:32:41;;;;;;;0.80;0.60;;;;;;;;;;4408870;32;20033;-52
2022/01/26 21:35:10;;;;;;;1.10;0.60;;;;;;;;;;4403896;32;20087;-52
2022/01/26 21:37:38;;;;;;;1.40;0.60;;;;;;;;;;4408368;32;20113;-53
2022/01/26 21:40:07;;;;;;;0.98;0.62;;;;;;;;;;4410168;32;20087;-52
2022/01/26 21:42:35;;;;;;;0.60;0.50;;;;;;;;;;4404902;32;20035;-51
2022/01/26 21:45:04;;;;;;;1.40;0.52;;;;;;;;;;4408625;32;20090;-55
2022/01/26 21:47:32;;;;;;;0.77;0.57;;;;;;;;;;4414241;32;20083;-53
2022/01/26 21:50:01;;;;;;;0.82;0.55;;;;;;;;;;4406555;32;20490;-52
2022/01/26 21:52:30;;;;;;;1.87;0.70;;;;;;;;;;4406466;32;20326;-54
2022/01/26 21:54:58;;;;;;;1.25;0.60;;;;;;;;;;4414521;32;20086;-54
2022/01/26 21:57:27;;;;;;;1.85;0.60;;;;;;;;;;4409315;32;20401;-54
2022/01/26 21:59:55;;;;;;;0.70;0.60;;;;;;;;;;4410447;32;20030;-54
2022/01/26 22:02:23;;;;;;;1.45;0.80;;;;;;;;;;4409083;32;20030;-54